馬祖北竿航空站 - ATIS

METAR RCMT 281100Z 08006KT 9999 FEW012 27/22 Q1010 NOSIG RMK A2983(F)=

站台狀態:Online
最後更新:2021-09-28 20:30:01